sensor_id;sensor_type;location;lat;lon;timestamp;pressure;altitude;pressure_sealevel;temperature;humidity
45050;BME280;61798;48.048;-1.928;2023-03-05T00:01:35;101608.50;;;2.98;100.00
45050;BME280;61798;48.048;-1.928;2023-03-05T00:03:41;101609.69;;;3.05;100.00
45050;BME280;61798;48.048;-1.928;2023-03-05T00:05:47;101576.66;;;2.75;100.00
45050;BME280;61798;48.048;-1.928;2023-03-05T00:07:53;101607.03;;;2.94;100.00
45050;BME280;61798;48.048;-1.928;2023-03-05T00:10:00;101579.91;;;2.79;100.00
45050;BME280;61798;48.048;-1.928;2023-03-05T00:12:07;101602.94;;;2.90;100.00
45050;BME280;61798;48.048;-1.928;2023-03-05T00:14:13;101578.13;;;2.79;100.00
45050;BME280;61798;48.048;-1.928;2023-03-05T00:16:20;101608.75;;;3.06;100.00
45050;BME280;61798;48.048;-1.928;2023-03-05T00:18:26;101584.41;;;2.90;100.00
45050;BME280;61798;48.048;-1.928;2023-03-05T00:20:33;101583.81;;;2.86;100.00
45050;BME280;61798;48.048;-1.928;2023-03-05T00:22:39;101603.41;;;2.95;100.00
45050;BME280;61798;48.048;-1.928;2023-03-05T00:24:49;101551.16;;;2.62;100.00
45050;BME280;61798;48.048;-1.928;2023-03-05T00:26:56;101601.75;;;2.94;100.00
45050;BME280;61798;48.048;-1.928;2023-03-05T00:29:02;101597.06;;;2.98;100.00
45050;BME280;61798;48.048;-1.928;2023-03-05T00:31:08;101589.22;;;2.96;100.00
45050;BME280;61798;48.048;-1.928;2023-03-05T00:33:14;101586.06;;;2.91;100.00
45050;BME280;61798;48.048;-1.928;2023-03-05T00:35:20;101604.00;;;2.99;100.00
45050;BME280;61798;48.048;-1.928;2023-03-05T00:37:26;101589.97;;;2.98;100.00
45050;BME280;61798;48.048;-1.928;2023-03-05T00:39:32;101609.78;;;2.92;100.00
45050;BME280;61798;48.048;-1.928;2023-03-05T00:41:38;101589.44;;;2.81;100.00
45050;BME280;61798;48.048;-1.928;2023-03-05T00:43:44;101587.75;;;2.80;100.00
45050;BME280;61798;48.048;-1.928;2023-03-05T00:45:50;101588.69;;;2.79;100.00
45050;BME280;61798;48.048;-1.928;2023-03-05T00:47:56;101607.03;;;2.94;100.00
45050;BME280;61798;48.048;-1.928;2023-03-05T00:50:05;101603.31;;;2.96;100.00
45050;BME280;61798;48.048;-1.928;2023-03-05T00:52:11;101555.72;;;2.60;100.00
45050;BME280;61798;48.048;-1.928;2023-03-05T00:54:17;101607.50;;;2.88;100.00
45050;BME280;61798;48.048;-1.928;2023-03-05T00:56:23;101594.38;;;2.86;100.00
45050;BME280;61798;48.048;-1.928;2023-03-05T00:58:29;101559.31;;;2.71;100.00
45050;BME280;61798;48.048;-1.928;2023-03-05T01:00:35;101569.47;;;2.77;100.00
45050;BME280;61798;48.048;-1.928;2023-03-05T01:02:41;101604.25;;;2.95;100.00
45050;BME280;61798;48.048;-1.928;2023-03-05T01:04:47;101582.09;;;2.85;100.00
45050;BME280;61798;48.048;-1.928;2023-03-05T01:06:53;101549.13;;;2.78;100.00
45050;BME280;61798;48.048;-1.928;2023-03-05T01:08:59;101576.81;;;2.85;100.00
45050;BME280;61798;48.048;-1.928;2023-03-05T01:11:06;101578.63;;;2.84;100.00
45050;BME280;61798;48.048;-1.928;2023-03-05T01:13:12;101559.97;;;2.74;100.00
45050;BME280;61798;48.048;-1.928;2023-03-05T01:15:18;101571.63;;;2.83;100.00
45050;BME280;61798;48.048;-1.928;2023-03-05T01:17:24;101534.28;;;2.52;100.00
45050;BME280;61798;48.048;-1.928;2023-03-05T01:19:30;101561.28;;;2.80;100.00
45050;BME280;61798;48.048;-1.928;2023-03-05T01:21:36;101534.19;;;2.65;100.00
45050;BME280;61798;48.048;-1.928;2023-03-05T01:23:42;101545.63;;;2.77;100.00
45050;BME280;61798;48.048;-1.928;2023-03-05T01:25:56;101565.53;;;2.94;100.00
45050;BME280;61798;48.048;-1.928;2023-03-05T01:28:02;101527.81;;;2.79;100.00
45050;BME280;61798;48.048;-1.928;2023-03-05T01:30:09;101559.59;;;2.91;100.00
45050;BME280;61798;48.048;-1.928;2023-03-05T01:32:16;101558.53;;;2.93;100.00
45050;BME280;61798;48.048;-1.928;2023-03-05T01:34:22;101539.50;;;2.88;100.00
45050;BME280;61798;48.048;-1.928;2023-03-05T01:36:28;101508.69;;;2.64;100.00
45050;BME280;61798;48.048;-1.928;2023-03-05T01:38:34;101519.41;;;2.74;100.00
45050;BME280;61798;48.048;-1.928;2023-03-05T01:40:41;101545.88;;;2.85;100.00
45050;BME280;61798;48.048;-1.928;2023-03-05T01:43:27;101504.72;;;2.58;100.00
45050;BME280;61798;48.048;-1.928;2023-03-05T01:45:28;101511.69;;;2.71;100.00
45050;BME280;61798;48.048;-1.928;2023-03-05T01:47:35;101536.50;;;2.81;100.00
45050;BME280;61798;48.048;-1.928;2023-03-05T01:49:41;101509.16;;;2.69;100.00
45050;BME280;61798;48.048;-1.928;2023-03-05T01:52:06;101526.25;;;2.77;100.00
45050;BME280;61798;48.048;-1.928;2023-03-05T01:54:16;101518.41;;;2.75;100.00
45050;BME280;61798;48.048;-1.928;2023-03-05T01:56:25;101462.56;;;2.43;100.00
45050;BME280;61798;48.048;-1.928;2023-03-05T01:58:32;101454.16;;;2.38;100.00
45050;BME280;61798;48.048;-1.928;2023-03-05T02:00:49;101516.88;;;2.72;100.00
45050;BME280;61798;48.048;-1.928;2023-03-05T02:02:56;101500.13;;;2.60;100.00
45050;BME280;61798;48.048;-1.928;2023-03-05T02:05:10;101457.28;;;2.32;100.00
45050;BME280;61798;48.048;-1.928;2023-03-05T02:07:17;101502.19;;;2.68;100.00
45050;BME280;61798;48.048;-1.928;2023-03-05T02:09:25;101485.19;;;2.59;100.00
45050;BME280;61798;48.048;-1.928;2023-03-05T02:11:33;101499.66;;;2.67;100.00
45050;BME280;61798;48.048;-1.928;2023-03-05T02:13:39;101485.94;;;2.61;100.00
45050;BME280;61798;48.048;-1.928;2023-03-05T02:15:46;101498.81;;;2.66;100.00
45050;BME280;61798;48.048;-1.928;2023-03-05T02:17:52;101471.03;;;2.60;100.00
45050;BME280;61798;48.048;-1.928;2023-03-05T02:20:06;101472.22;;;2.56;100.00
45050;BME280;61798;48.048;-1.928;2023-03-05T02:22:14;101474.28;;;2.64;100.00
45050;BME280;61798;48.048;-1.928;2023-03-05T02:24:35;101476.66;;;2.67;100.00
45050;BME280;61798;48.048;-1.928;2023-03-05T02:26:42;101459.72;;;2.58;100.00
45050;BME280;61798;48.048;-1.928;2023-03-05T02:28:56;101448.16;;;2.48;100.00
45050;BME280;61798;48.048;-1.928;2023-03-05T02:31:13;101467.53;;;2.60;100.00
45050;BME280;61798;48.048;-1.928;2023-03-05T02:33:19;101427.94;;;2.35;100.00
45050;BME280;61798;48.048;-1.928;2023-03-05T02:35:25;101454.88;;;2.52;100.00
45050;BME280;61798;48.048;-1.928;2023-03-05T02:37:31;101447.91;;;2.51;100.00
45050;BME280;61798;48.048;-1.928;2023-03-05T02:39:37;101416.75;;;2.31;100.00
45050;BME280;61798;48.048;-1.928;2023-03-05T02:41:44;101399.66;;;2.24;100.00
45050;BME280;61798;48.048;-1.928;2023-03-05T02:43:50;101439.97;;;2.51;100.00
45050;BME280;61798;48.048;-1.928;2023-03-05T02:45:56;101397.75;;;2.26;100.00
45050;BME280;61798;48.048;-1.928;2023-03-05T02:48:02;101454.78;;;2.53;100.00
45050;BME280;61798;48.048;-1.928;2023-03-05T02:50:10;101427.47;;;2.41;100.00
45050;BME280;61798;48.048;-1.928;2023-03-05T02:52:16;101431.81;;;2.42;100.00
45050;BME280;61798;48.048;-1.928;2023-03-05T02:54:22;101441.31;;;2.57;100.00
45050;BME280;61798;48.048;-1.928;2023-03-05T02:56:28;101430.81;;;2.43;100.00
45050;BME280;61798;48.048;-1.928;2023-03-05T02:58:34;101439.84;;;2.52;100.00
45050;BME280;61798;48.048;-1.928;2023-03-05T03:00:41;101427.47;;;2.41;100.00
45050;BME280;61798;48.048;-1.928;2023-03-05T03:02:47;101435.91;;;2.47;100.00
45050;BME280;61798;48.048;-1.928;2023-03-05T03:04:53;101440.72;;;2.53;100.00
45050;BME280;61798;48.048;-1.928;2023-03-05T03:06:59;101412.19;;;2.34;100.00
45050;BME280;61798;48.048;-1.928;2023-03-05T03:09:05;101433.84;;;2.39;100.00
45050;BME280;61798;48.048;-1.928;2023-03-05T03:11:11;101405.09;;;2.34;100.00
45050;BME280;61798;48.048;-1.928;2023-03-05T03:13:17;101428.56;;;2.39;100.00
45050;BME280;61798;48.048;-1.928;2023-03-05T03:15:23;101444.56;;;2.49;100.00
45050;BME280;61798;48.048;-1.928;2023-03-05T03:17:29;101433.47;;;2.55;100.00
45050;BME280;61798;48.048;-1.928;2023-03-05T03:19:36;101379.94;;;2.17;100.00
45050;BME280;61798;48.048;-1.928;2023-03-05T03:21:42;101413.41;;;2.41;100.00
45050;BME280;61798;48.048;-1.928;2023-03-05T03:23:48;101418.69;;;2.41;100.00
45050;BME280;61798;48.048;-1.928;2023-03-05T03:25:54;101378.50;;;2.13;100.00
45050;BME280;61798;48.048;-1.928;2023-03-05T03:28:00;101411.25;;;2.35;100.00
45050;BME280;61798;48.048;-1.928;2023-03-05T03:30:07;101425.53;;;2.43;100.00
45050;BME280;61798;48.048;-1.928;2023-03-05T03:32:13;101398.38;;;2.30;100.00
45050;BME280;61798;48.048;-1.928;2023-03-05T03:34:19;101404.25;;;2.34;100.00
45050;BME280;61798;48.048;-1.928;2023-03-05T03:36:25;101411.84;;;2.38;100.00
45050;BME280;61798;48.048;-1.928;2023-03-05T03:38:31;101406.06;;;2.33;100.00
45050;BME280;61798;48.048;-1.928;2023-03-05T03:40:37;101404.38;;;2.43;100.00
45050;BME280;61798;48.048;-1.928;2023-03-05T03:42:43;101404.88;;;2.37;100.00
45050;BME280;61798;48.048;-1.928;2023-03-05T03:44:50;101402.09;;;2.39;100.00
45050;BME280;61798;48.048;-1.928;2023-03-05T03:46:56;101402.47;;;2.46;100.00
45050;BME280;61798;48.048;-1.928;2023-03-05T03:49:02;101401.00;;;2.41;100.00
45050;BME280;61798;48.048;-1.928;2023-03-05T03:51:08;101397.88;;;2.36;100.00
45050;BME280;61798;48.048;-1.928;2023-03-05T03:53:14;101345.22;;;2.10;100.00
45050;BME280;61798;48.048;-1.928;2023-03-05T03:55:22;101384.66;;;2.36;100.00
45050;BME280;61798;48.048;-1.928;2023-03-05T03:57:28;101371.31;;;2.26;100.00
45050;BME280;61798;48.048;-1.928;2023-03-05T03:59:35;101368.66;;;2.26;100.00
45050;BME280;61798;48.048;-1.928;2023-03-05T04:01:41;101313.09;;;2.03;100.00
45050;BME280;61798;48.048;-1.928;2023-03-05T04:03:47;101357.84;;;2.18;100.00
45050;BME280;61798;48.048;-1.928;2023-03-05T04:05:52;101319.84;;;1.96;100.00
45050;BME280;61798;48.048;-1.928;2023-03-05T04:07:58;101367.81;;;2.37;100.00
45050;BME280;61798;48.048;-1.928;2023-03-05T04:10:06;101350.03;;;2.16;100.00
45050;BME280;61798;48.048;-1.928;2023-03-05T04:12:12;101358.44;;;2.21;100.00
45050;BME280;61798;48.048;-1.928;2023-03-05T04:14:22;101337.03;;;2.13;100.00
45050;BME280;61798;48.048;-1.928;2023-03-05T04:16:28;101358.09;;;2.38;100.00
45050;BME280;61798;48.048;-1.928;2023-03-05T04:18:34;101369.72;;;2.35;100.00
45050;BME280;61798;48.048;-1.928;2023-03-05T04:20:41;101365.78;;;2.29;100.00
45050;BME280;61798;48.048;-1.928;2023-03-05T04:22:46;101348.13;;;2.30;100.00
45050;BME280;61798;48.048;-1.928;2023-03-05T04:24:52;101360.84;;;2.36;100.00
45050;BME280;61798;48.048;-1.928;2023-03-05T04:26:58;101339.56;;;2.26;100.00
45050;BME280;61798;48.048;-1.928;2023-03-05T04:29:04;101296.41;;;2.03;100.00
45050;BME280;61798;48.048;-1.928;2023-03-05T04:31:10;101305.31;;;2.13;100.00
45050;BME280;61798;48.048;-1.928;2023-03-05T04:33:17;101361.81;;;2.47;100.00
45050;BME280;61798;48.048;-1.928;2023-03-05T04:35:23;101343.06;;;2.27;100.00
45050;BME280;61798;48.048;-1.928;2023-03-05T04:37:29;101343.03;;;2.15;100.00
45050;BME280;61798;48.048;-1.928;2023-03-05T04:39:35;101351.94;;;2.37;100.00
45050;BME280;61798;48.048;-1.928;2023-03-05T04:41:41;101371.44;;;2.36;100.00
45050;BME280;61798;48.048;-1.928;2023-03-05T04:43:47;101359.16;;;2.24;100.00
45050;BME280;61798;48.048;-1.928;2023-03-05T04:45:54;101332.09;;;2.08;100.00
45050;BME280;61798;48.048;-1.928;2023-03-05T04:48:00;101313.00;;;1.93;100.00
45050;BME280;61798;48.048;-1.928;2023-03-05T04:50:06;101346.53;;;2.16;100.00
45050;BME280;61798;48.048;-1.928;2023-03-05T04:52:14;101314.69;;;1.94;100.00
45050;BME280;61798;48.048;-1.928;2023-03-05T04:54:20;101369.13;;;2.31;100.00
45050;BME280;61798;48.048;-1.928;2023-03-05T04:56:26;101361.78;;;2.24;100.00
45050;BME280;61798;48.048;-1.928;2023-03-05T04:58:32;101357.72;;;2.19;100.00
45050;BME280;61798;48.048;-1.928;2023-03-05T05:00:38;101363.72;;;2.21;100.00
45050;BME280;61798;48.048;-1.928;2023-03-05T05:02:47;101367.81;;;2.26;100.00
45050;BME280;61798;48.048;-1.928;2023-03-05T05:04:53;101363.00;;;2.31;100.00
45050;BME280;61798;48.048;-1.928;2023-03-05T05:06:59;101360.50;;;2.29;100.00
45050;BME280;61798;48.048;-1.928;2023-03-05T05:09:05;101351.81;;;2.27;100.00
45050;BME280;61798;48.048;-1.928;2023-03-05T05:11:13;101348.31;;;2.15;100.00
45050;BME280;61798;48.048;-1.928;2023-03-05T05:13:19;101332.72;;;2.12;100.00
45050;BME280;61798;48.048;-1.928;2023-03-05T05:15:25;101342.34;;;2.13;100.00
45050;BME280;61798;48.048;-1.928;2023-03-05T05:17:31;101304.47;;;1.89;100.00
45050;BME280;61798;48.048;-1.928;2023-03-05T05:19:37;101343.03;;;2.15;100.00
45050;BME280;61798;48.048;-1.928;2023-03-05T05:21:43;101304.56;;;1.88;100.00
45050;BME280;61798;48.048;-1.928;2023-03-05T05:23:49;101339.56;;;2.15;100.00
45050;BME280;61798;48.048;-1.928;2023-03-05T05:25:59;101326.22;;;2.05;100.00
45050;BME280;61798;48.048;-1.928;2023-03-05T05:28:06;101330.19;;;2.10;100.00
45050;BME280;61798;48.048;-1.928;2023-03-05T05:30:12;101327.66;;;2.09;100.00
45050;BME280;61798;48.048;-1.928;2023-03-05T05:32:20;101340.38;;;2.15;100.00
45050;BME280;61798;48.048;-1.928;2023-03-05T05:34:27;101329.09;;;2.13;100.00
45050;BME280;61798;48.048;-1.928;2023-03-05T05:36:32;101332.00;;;2.10;100.00
45050;BME280;61798;48.048;-1.928;2023-03-05T05:38:39;101338.84;;;2.13;100.00
45050;BME280;61798;48.048;-1.928;2023-03-05T05:40:45;101321.28;;;2.11;100.00
45050;BME280;61798;48.048;-1.928;2023-03-05T05:42:50;101302.41;;;1.93;100.00
45050;BME280;61798;48.048;-1.928;2023-03-05T05:44:56;101311.06;;;1.95;100.00
45050;BME280;61798;48.048;-1.928;2023-03-05T05:47:02;101328.84;;;2.05;100.00
45050;BME280;61798;48.048;-1.928;2023-03-05T05:49:08;101316.47;;;2.05;100.00
45050;BME280;61798;48.048;-1.928;2023-03-05T05:51:17;101330.81;;;2.14;100.00
45050;BME280;61798;48.048;-1.928;2023-03-05T05:53:24;101315.63;;;2.16;100.00
45050;BME280;61798;48.048;-1.928;2023-03-05T05:55:30;101308.19;;;2.10;100.00
45050;BME280;61798;48.048;-1.928;2023-03-05T05:57:36;101315.88;;;2.25;100.00
45050;BME280;61798;48.048;-1.928;2023-03-05T05:59:42;101307.00;;;2.26;100.00
45050;BME280;61798;48.048;-1.928;2023-03-05T06:01:48;101296.16;;;2.17;100.00
45050;BME280;61798;48.048;-1.928;2023-03-05T06:03:55;101260.00;;;1.95;100.00
45050;BME280;61798;48.048;-1.928;2023-03-05T06:06:01;101281.03;;;2.08;100.00
45050;BME280;61798;48.048;-1.928;2023-03-05T06:08:07;101287.03;;;2.21;100.00
45050;BME280;61798;48.048;-1.928;2023-03-05T06:10:13;101298.56;;;2.32;100.00
45050;BME280;61798;48.048;-1.928;2023-03-05T06:12:19;101289.44;;;2.25;100.00
45050;BME280;61798;48.048;-1.928;2023-03-05T06:14:25;101294.72;;;2.25;100.00
45050;BME280;61798;48.048;-1.928;2023-03-05T06:16:32;101289.69;;;2.21;100.00
45050;BME280;61798;48.048;-1.928;2023-03-05T06:18:38;101298.31;;;2.24;100.00
45050;BME280;61798;48.048;-1.928;2023-03-05T06:20:44;101252.53;;;2.00;100.00
45050;BME280;61798;48.048;-1.928;2023-03-05T06:22:50;101288.50;;;2.14;100.00
45050;BME280;61798;48.048;-1.928;2023-03-05T06:24:56;101279.47;;;2.05;100.00
45050;BME280;61798;48.048;-1.928;2023-03-05T06:27:03;101298.09;;;2.15;100.00
45050;BME280;61798;48.048;-1.928;2023-03-05T06:29:09;101301.34;;;2.19;100.00
45050;BME280;61798;48.048;-1.928;2023-03-05T06:31:20;101299.06;;;2.14;100.00
45050;BME280;61798;48.048;-1.928;2023-03-05T06:33:27;101307.25;;;2.22;100.00
45050;BME280;61798;48.048;-1.928;2023-03-05T06:35:33;101315.28;;;2.21;100.00
45050;BME280;61798;48.048;-1.928;2023-03-05T06:37:39;101297.28;;;2.15;100.00
45050;BME280;61798;48.048;-1.928;2023-03-05T06:39:45;101313.47;;;2.21;100.00
45050;BME280;61798;48.048;-1.928;2023-03-05T06:41:52;101293.78;;;2.14;100.00
45050;BME280;61798;48.048;-1.928;2023-03-05T06:44:01;101299.53;;;2.19;100.00
45050;BME280;61798;48.048;-1.928;2023-03-05T06:46:15;101297.63;;;2.21;100.00
45050;BME280;61798;48.048;-1.928;2023-03-05T06:48:22;101288.84;;;2.21;100.00
45050;BME280;61798;48.048;-1.928;2023-03-05T06:50:33;101291.59;;;2.19;100.00
45050;BME280;61798;48.048;-1.928;2023-03-05T06:52:41;101258.22;;;2.07;100.00
45050;BME280;61798;48.048;-1.928;2023-03-05T06:54:49;101256.28;;;2.09;100.00
45050;BME280;61798;48.048;-1.928;2023-03-05T06:56:57;101276.22;;;2.25;100.00
45050;BME280;61798;48.048;-1.928;2023-03-05T06:59:05;101280.03;;;2.32;100.00
45050;BME280;61798;48.048;-1.928;2023-03-05T07:01:13;101278.75;;;2.26;100.00
45050;BME280;61798;48.048;-1.928;2023-03-05T07:03:21;101273.81;;;2.21;100.00
45050;BME280;61798;48.048;-1.928;2023-03-05T07:05:28;101273.91;;;2.20;100.00
45050;BME280;61798;48.048;-1.928;2023-03-05T07:07:35;101287.53;;;2.27;100.00
45050;BME280;61798;48.048;-1.928;2023-03-05T07:09:43;101277.91;;;2.26;100.00
45050;BME280;61798;48.048;-1.928;2023-03-05T07:11:52;101286.91;;;2.23;100.00
45050;BME280;61798;48.048;-1.928;2023-03-05T07:14:02;101294.22;;;2.31;100.00
45050;BME280;61798;48.048;-1.928;2023-03-05T07:16:13;101290.28;;;2.25;100.00
45050;BME280;61798;48.048;-1.928;2023-03-05T07:18:21;101253.72;;;2.07;100.00
45050;BME280;61798;48.048;-1.928;2023-03-05T07:20:28;101285.84;;;2.26;100.00
45050;BME280;61798;48.048;-1.928;2023-03-05T07:22:36;101267.78;;;2.19;100.00
45050;BME280;61798;48.048;-1.928;2023-03-05T07:24:51;101274.41;;;2.25;100.00
45050;BME280;61798;48.048;-1.928;2023-03-05T07:27:01;101285.94;;;2.36;100.00
45050;BME280;61798;48.048;-1.928;2023-03-05T07:29:09;101286.06;;;2.34;100.00
45050;BME280;61798;48.048;-1.928;2023-03-05T07:31:23;101297.00;;;2.41;100.00
45050;BME280;61798;48.048;-1.928;2023-03-05T07:33:47;101301.94;;;2.46;100.00
45050;BME280;61798;48.048;-1.928;2023-03-05T07:35:55;101294.59;;;2.38;100.00
45050;BME280;61798;48.048;-1.928;2023-03-05T07:38:10;101298.94;;;2.39;100.00
45050;BME280;61798;48.048;-1.928;2023-03-05T07:40:21;101294.00;;;2.46;100.00
45050;BME280;61798;48.048;-1.928;2023-03-05T07:42:29;101286.31;;;2.42;100.00
45050;BME280;61798;48.048;-1.928;2023-03-05T07:44:38;101276.78;;;2.40;100.00
45050;BME280;61798;48.048;-1.928;2023-03-05T07:46:52;101308.50;;;2.51;100.00
45050;BME280;61798;48.048;-1.928;2023-03-05T07:48:59;101288.19;;;2.52;100.00
45050;BME280;61798;48.048;-1.928;2023-03-05T07:51:13;101279.06;;;2.45;100.00
45050;BME280;61798;48.048;-1.928;2023-03-05T07:53:24;101263.91;;;2.35;100.00
45050;BME280;61798;48.048;-1.928;2023-03-05T07:55:40;101275.31;;;2.47;100.00
45050;BME280;61798;48.048;-1.928;2023-03-05T07:57:49;101221.19;;;2.18;100.00
45050;BME280;61798;48.048;-1.928;2023-03-05T07:59:59;101276.28;;;2.58;100.00
45050;BME280;61798;48.048;-1.928;2023-03-05T08:02:11;101278.94;;;2.58;100.00
45050;BME280;61798;48.048;-1.928;2023-03-05T08:04:21;101260.56;;;2.45;100.00
45050;BME280;61798;48.048;-1.928;2023-03-05T08:06:31;101266.91;;;2.53;100.00
45050;BME280;61798;48.048;-1.928;2023-03-05T08:08:49;101234.22;;;2.43;100.00
45050;BME280;61798;48.048;-1.928;2023-03-05T08:11:06;101261.13;;;2.60;100.00
45050;BME280;61798;48.048;-1.928;2023-03-05T08:13:15;101257.63;;;2.59;100.00
45050;BME280;61798;48.048;-1.928;2023-03-05T08:15:22;101243.72;;;2.46;100.00
45050;BME280;61798;48.048;-1.928;2023-03-05T08:17:29;101257.63;;;2.59;100.00
45050;BME280;61798;48.048;-1.928;2023-03-05T08:19:36;101252.22;;;2.61;100.00
45050;BME280;61798;48.048;-1.928;2023-03-05T08:21:43;101211.88;;;2.36;100.00
45050;BME280;61798;48.048;-1.928;2023-03-05T08:23:50;101188.91;;;2.36;100.00
45050;BME280;61798;48.048;-1.928;2023-03-05T08:26:00;101248.69;;;2.72;100.00
45050;BME280;61798;48.048;-1.928;2023-03-05T08:28:08;101238.94;;;2.72;100.00
45050;BME280;61798;48.048;-1.928;2023-03-05T08:30:18;101247.56;;;2.86;100.00
45050;BME280;61798;48.048;-1.928;2023-03-05T08:32:26;101230.63;;;2.77;100.00
45050;BME280;61798;48.048;-1.928;2023-03-05T08:34:33;101249.38;;;2.85;100.00
45050;BME280;61798;48.048;-1.928;2023-03-05T08:36:40;101235.41;;;2.83;100.00
45050;BME280;61798;48.048;-1.928;2023-03-05T08:38:48;101237.69;;;2.88;100.00
45050;BME280;61798;48.048;-1.928;2023-03-05T08:40:56;101231.81;;;2.84;100.00
45050;BME280;61798;48.048;-1.928;2023-03-05T08:43:03;101238.25;;;2.92;100.00
45050;BME280;61798;48.048;-1.928;2023-03-05T08:45:11;101248.38;;;2.98;100.00
45050;BME280;61798;48.048;-1.928;2023-03-05T08:47:18;101230.31;;;2.92;100.00
45050;BME280;61798;48.048;-1.928;2023-03-05T08:49:26;101247.84;;;3.04;100.00
45050;BME280;61798;48.048;-1.928;2023-03-05T08:51:33;101228.00;;;2.99;100.00
45050;BME280;61798;48.048;-1.928;2023-03-05T08:53:43;101235.31;;;3.06;100.00
45050;BME280;61798;48.048;-1.928;2023-03-05T08:55:55;101230.53;;;3.00;100.00
45050;BME280;61798;48.048;-1.928;2023-03-05T08:58:03;101220.03;;;3.10;100.00
45050;BME280;61798;48.048;-1.928;2023-03-05T09:00:12;101214.16;;;3.06;100.00
45050;BME280;61798;48.048;-1.928;2023-03-05T09:02:25;101230.78;;;3.19;100.00
45050;BME280;61798;48.048;-1.928;2023-03-05T09:04:40;101226.09;;;3.22;100.00
45050;BME280;61798;48.048;-1.928;2023-03-05T09:06:48;101217.41;;;3.20;100.00
45050;BME280;61798;48.048;-1.928;2023-03-05T09:08:59;101225.09;;;3.23;100.00
45050;BME280;61798;48.048;-1.928;2023-03-05T09:11:10;101219.75;;;3.13;100.00
45050;BME280;61798;48.048;-1.928;2023-03-05T09:13:21;101203.41;;;3.08;100.00
45050;BME280;61798;48.048;-1.928;2023-03-05T09:15:33;101192.69;;;3.10;100.00
45050;BME280;61798;48.048;-1.928;2023-03-05T09:17:43;101218.72;;;3.26;100.00
45050;BME280;61798;48.048;-1.928;2023-03-05T09:19:50;101232.47;;;3.41;100.00
45050;BME280;61798;48.048;-1.928;2023-03-05T09:22:07;101214.44;;;3.35;100.00
45050;BME280;61798;48.048;-1.928;2023-03-05T09:24:16;101188.88;;;3.24;100.00
45050;BME280;61798;48.048;-1.928;2023-03-05T09:26:26;101217.41;;;3.42;100.00
45050;BME280;61798;48.048;-1.928;2023-03-05T09:28:39;101189.44;;;3.27;100.00
45050;BME280;61798;48.048;-1.928;2023-03-05T09:30:48;101189.31;;;3.29;100.00
45050;BME280;61798;48.048;-1.928;2023-03-05T09:32:55;101193.69;;;3.40;100.00
45050;BME280;61798;48.048;-1.928;2023-03-05T09:35:03;101190.09;;;3.41;100.00
45050;BME280;61798;48.048;-1.928;2023-03-05T09:37:10;101200.88;;;3.49;100.00
45050;BME280;61798;48.048;-1.928;2023-03-05T09:39:17;101183.66;;;3.44;100.00
45050;BME280;61798;48.048;-1.928;2023-03-05T09:52:16;101183.91;;;3.62;100.00
45050;BME280;61798;48.048;-1.928;2023-03-05T09:54:31;101182.63;;;3.66;100.00
45050;BME280;61798;48.048;-1.928;2023-03-05T09:56:53;101179.59;;;3.71;100.00
45050;BME280;61798;48.048;-1.928;2023-03-05T10:01:43;101185.25;;;3.88;100.00
45050;BME280;61798;48.048;-1.928;2023-03-05T10:03:59;101159.91;;;3.64;100.00
45050;BME280;61798;48.048;-1.928;2023-03-05T10:08:26;101180.06;;;3.86;100.00
45050;BME280;61798;48.048;-1.928;2023-03-05T10:10:47;101181.91;;;3.96;100.00
45050;BME280;61798;48.048;-1.928;2023-03-05T10:12:59;101186.53;;;3.94;100.00
45050;BME280;61798;48.048;-1.928;2023-03-05T10:15:46;101183.03;;;3.93;100.00
45050;BME280;61798;48.048;-1.928;2023-03-05T10:18:45;101169.31;;;3.78;100.00
45050;BME280;61798;48.048;-1.928;2023-03-05T10:21:17;101160.53;;;3.77;100.00
45050;BME280;61798;48.048;-1.928;2023-03-05T10:26:56;101176.09;;;4.02;100.00
45050;BME280;61798;48.048;-1.928;2023-03-05T10:37:57;101155.44;;;4.06;100.00
45050;BME280;61798;48.048;-1.928;2023-03-05T10:40:45;101140.56;;;3.83;100.00
45050;BME280;61798;48.048;-1.928;2023-03-05T10:45:47;101136.31;;;4.02;100.00
45050;BME280;61798;48.048;-1.928;2023-03-05T10:50:36;101140.34;;;4.26;100.00
45050;BME280;61798;48.048;-1.928;2023-03-05T10:52:51;101120.25;;;4.14;100.00
45050;BME280;61798;48.048;-1.928;2023-03-05T10:55:21;101120.78;;;3.97;100.00
45050;BME280;61798;48.048;-1.928;2023-03-05T10:57:31;101115.09;;;4.02;100.00
45050;BME280;61798;48.048;-1.928;2023-03-05T10:59:47;101112.00;;;3.97;100.00
45050;BME280;61798;48.048;-1.928;2023-03-05T11:02:07;101128.09;;;4.25;100.00
45050;BME280;61798;48.048;-1.928;2023-03-05T11:04:28;101119.69;;;4.20;100.00
45050;BME280;61798;48.048;-1.928;2023-03-05T11:06:41;101116.88;;;4.11;100.00
45050;BME280;61798;48.048;-1.928;2023-03-05T11:08:47;101079.19;;;3.88;100.00
45050;BME280;61798;48.048;-1.928;2023-03-05T11:11:21;101131.84;;;4.22;100.00
45050;BME280;61798;48.048;-1.928;2023-03-05T11:13:30;101114.97;;;4.33;100.00
45050;BME280;61798;48.048;-1.928;2023-03-05T11:15:40;101109.66;;;4.33;100.00
45050;BME280;61798;48.048;-1.928;2023-03-05T11:18:10;101119.69;;;4.40;100.00
45050;BME280;61798;48.048;-1.928;2023-03-05T11:20:33;101116.34;;;4.58;100.00
45050;BME280;61798;48.048;-1.928;2023-03-05T11:22:40;101098.75;;;4.37;100.00
45050;BME280;61798;48.048;-1.928;2023-03-05T11:25:15;101119.56;;;4.51;100.00
45050;BME280;61798;48.048;-1.928;2023-03-05T11:27:49;101093.56;;;4.15;100.00
45050;BME280;61798;48.048;-1.928;2023-03-05T11:29:57;101076.41;;;4.29;100.00
45050;BME280;61798;48.048;-1.928;2023-03-05T11:32:16;101089.81;;;4.18;100.00
45050;BME280;61798;48.048;-1.928;2023-03-05T11:34:30;101087.44;;;4.34;100.00
45050;BME280;61798;48.048;-1.928;2023-03-05T11:36:42;101053.50;;;4.28;100.00
45050;BME280;61798;48.048;-1.928;2023-03-05T11:39:10;101081.00;;;4.47;100.00
45050;BME280;61798;48.048;-1.928;2023-03-05T11:41:43;101091.19;;;4.42;100.00